sensor_id;sensor_type;location;lat;lon;timestamp;P1;durP1;ratioP1;P2;durP2;ratioP2
48552;SDS011;34335;51.566;6.994;2023-06-14T00:02:05;4.07;;;2.23;;
48552;SDS011;34335;51.566;6.994;2023-06-14T00:04:33;3.30;;;2.10;;
48552;SDS011;34335;51.566;6.994;2023-06-14T00:06:59;4.88;;;2.30;;
48552;SDS011;34335;51.566;6.994;2023-06-14T00:09:25;4.63;;;2.15;;
48552;SDS011;34335;51.566;6.994;2023-06-14T00:11:50;4.63;;;2.55;;
48552;SDS011;34335;51.566;6.994;2023-06-14T00:14:15;3.43;;;1.83;;
48552;SDS011;34335;51.566;6.994;2023-06-14T00:16:41;3.30;;;2.05;;
48552;SDS011;34335;51.566;6.994;2023-06-14T00:19:07;4.75;;;2.17;;
48552;SDS011;34335;51.566;6.994;2023-06-14T00:21:35;3.95;;;2.17;;
48552;SDS011;34335;51.566;6.994;2023-06-14T00:24:01;3.63;;;2.13;;
48552;SDS011;34335;51.566;6.994;2023-06-14T00:26:27;5.97;;;2.15;;
48552;SDS011;34335;51.566;6.994;2023-06-14T00:28:53;6.22;;;2.53;;
48552;SDS011;34335;51.566;6.994;2023-06-14T00:31:19;4.38;;;2.33;;
48552;SDS011;34335;51.566;6.994;2023-06-14T00:33:44;3.13;;;1.77;;
48552;SDS011;34335;51.566;6.994;2023-06-14T00:36:10;6.57;;;2.63;;
48552;SDS011;34335;51.566;6.994;2023-06-14T00:38:35;4.18;;;2.13;;
48552;SDS011;34335;51.566;6.994;2023-06-14T00:41:00;3.50;;;1.93;;
48552;SDS011;34335;51.566;6.994;2023-06-14T00:43:26;4.38;;;1.88;;
48552;SDS011;34335;51.566;6.994;2023-06-14T00:45:51;3.10;;;1.60;;
48552;SDS011;34335;51.566;6.994;2023-06-14T00:48:17;5.50;;;1.80;;
48552;SDS011;34335;51.566;6.994;2023-06-14T00:50:43;7.90;;;2.25;;
48552;SDS011;34335;51.566;6.994;2023-06-14T00:53:10;3.65;;;2.13;;
48552;SDS011;34335;51.566;6.994;2023-06-14T00:55:40;3.20;;;2.03;;
48552;SDS011;34335;51.566;6.994;2023-06-14T00:58:05;4.65;;;1.75;;
48552;SDS011;34335;51.566;6.994;2023-06-14T01:00:31;3.85;;;1.80;;
48552;SDS011;34335;51.566;6.994;2023-06-14T01:02:56;3.72;;;1.80;;
48552;SDS011;34335;51.566;6.994;2023-06-14T01:05:22;3.45;;;1.75;;
48552;SDS011;34335;51.566;6.994;2023-06-14T01:07:57;3.75;;;2.08;;
48552;SDS011;34335;51.566;6.994;2023-06-14T01:13:20;4.03;;;1.80;;
48552;SDS011;34335;51.566;6.994;2023-06-14T01:15:57;3.78;;;1.70;;
48552;SDS011;34335;51.566;6.994;2023-06-14T01:18:24;4.05;;;1.90;;
48552;SDS011;34335;51.566;6.994;2023-06-14T01:20:50;3.85;;;1.95;;
48552;SDS011;34335;51.566;6.994;2023-06-14T01:23:20;3.47;;;1.70;;
48552;SDS011;34335;51.566;6.994;2023-06-14T01:25:47;3.72;;;2.10;;
48552;SDS011;34335;51.566;6.994;2023-06-14T01:28:17;3.30;;;2.00;;
48552;SDS011;34335;51.566;6.994;2023-06-14T01:30:44;3.30;;;1.55;;
48552;SDS011;34335;51.566;6.994;2023-06-14T01:33:13;3.63;;;1.88;;
48552;SDS011;34335;51.566;6.994;2023-06-14T01:35:41;3.40;;;1.67;;
48552;SDS011;34335;51.566;6.994;2023-06-14T01:38:08;2.97;;;1.80;;
48552;SDS011;34335;51.566;6.994;2023-06-14T01:40:34;3.03;;;1.80;;
48552;SDS011;34335;51.566;6.994;2023-06-14T01:42:59;4.85;;;1.83;;
48552;SDS011;34335;51.566;6.994;2023-06-14T01:45:27;3.78;;;1.88;;
48552;SDS011;34335;51.566;6.994;2023-06-14T01:47:53;5.45;;;2.22;;
48552;SDS011;34335;51.566;6.994;2023-06-14T01:50:19;2.60;;;1.70;;
48552;SDS011;34335;51.566;6.994;2023-06-14T01:52:45;3.83;;;2.20;;
48552;SDS011;34335;51.566;6.994;2023-06-14T01:55:10;5.88;;;1.77;;
48552;SDS011;34335;51.566;6.994;2023-06-14T01:57:36;3.50;;;1.42;;
48552;SDS011;34335;51.566;6.994;2023-06-14T02:00:01;7.17;;;1.80;;
48552;SDS011;34335;51.566;6.994;2023-06-14T02:02:28;3.20;;;1.58;;
48552;SDS011;34335;51.566;6.994;2023-06-14T02:04:54;7.28;;;2.25;;
48552;SDS011;34335;51.566;6.994;2023-06-14T02:07:22;2.97;;;1.42;;
48552;SDS011;34335;51.566;6.994;2023-06-14T02:09:47;4.13;;;2.08;;
48552;SDS011;34335;51.566;6.994;2023-06-14T02:12:13;2.87;;;1.57;;
48552;SDS011;34335;51.566;6.994;2023-06-14T02:14:38;5.70;;;1.90;;
48552;SDS011;34335;51.566;6.994;2023-06-14T02:17:04;4.18;;;1.98;;
48552;SDS011;34335;51.566;6.994;2023-06-14T02:19:29;3.45;;;1.83;;
48552;SDS011;34335;51.566;6.994;2023-06-14T02:21:55;4.13;;;2.08;;
48552;SDS011;34335;51.566;6.994;2023-06-14T02:24:20;3.03;;;1.70;;
48552;SDS011;34335;51.566;6.994;2023-06-14T02:26:45;3.30;;;1.38;;
48552;SDS011;34335;51.566;6.994;2023-06-14T02:29:10;4.57;;;1.60;;
48552;SDS011;34335;51.566;6.994;2023-06-14T02:31:37;2.42;;;1.42;;
48552;SDS011;34335;51.566;6.994;2023-06-14T02:34:03;4.70;;;1.85;;
48552;SDS011;34335;51.566;6.994;2023-06-14T02:36:29;3.22;;;1.38;;
48552;SDS011;34335;51.566;6.994;2023-06-14T02:38:57;3.35;;;1.58;;
48552;SDS011;34335;51.566;6.994;2023-06-14T02:41:23;3.67;;;1.60;;
48552;SDS011;34335;51.566;6.994;2023-06-14T02:43:48;4.05;;;2.10;;
48552;SDS011;34335;51.566;6.994;2023-06-14T02:46:14;3.80;;;1.70;;
48552;SDS011;34335;51.566;6.994;2023-06-14T02:48:39;2.67;;;1.52;;
48552;SDS011;34335;51.566;6.994;2023-06-14T02:51:05;2.97;;;1.50;;
48552;SDS011;34335;51.566;6.994;2023-06-14T02:53:31;8.65;;;1.63;;
48552;SDS011;34335;51.566;6.994;2023-06-14T02:55:57;4.10;;;1.73;;
48552;SDS011;34335;51.566;6.994;2023-06-14T02:58:23;3.08;;;1.38;;
48552;SDS011;34335;51.566;6.994;2023-06-14T03:00:49;5.90;;;2.08;;
48552;SDS011;34335;51.566;6.994;2023-06-14T03:03:17;3.17;;;1.42;;
48552;SDS011;34335;51.566;6.994;2023-06-14T03:05:43;3.53;;;1.77;;
48552;SDS011;34335;51.566;6.994;2023-06-14T03:08:14;3.75;;;1.45;;
48552;SDS011;34335;51.566;6.994;2023-06-14T03:10:42;3.28;;;1.63;;
48552;SDS011;34335;51.566;6.994;2023-06-14T03:13:08;4.15;;;1.63;;
48552;SDS011;34335;51.566;6.994;2023-06-14T03:15:35;6.00;;;1.70;;
48552;SDS011;34335;51.566;6.994;2023-06-14T03:18:01;3.78;;;1.80;;
48552;SDS011;34335;51.566;6.994;2023-06-14T03:20:26;3.77;;;1.80;;
48552;SDS011;34335;51.566;6.994;2023-06-14T03:22:54;4.95;;;1.63;;
48552;SDS011;34335;51.566;6.994;2023-06-14T03:25:19;2.92;;;1.35;;
48552;SDS011;34335;51.566;6.994;2023-06-14T03:27:46;3.60;;;1.70;;
48552;SDS011;34335;51.566;6.994;2023-06-14T03:30:12;3.50;;;1.63;;
48552;SDS011;34335;51.566;6.994;2023-06-14T03:32:37;3.13;;;1.50;;
48552;SDS011;34335;51.566;6.994;2023-06-14T03:35:03;2.60;;;1.73;;
48552;SDS011;34335;51.566;6.994;2023-06-14T03:37:28;3.03;;;1.70;;
48552;SDS011;34335;51.566;6.994;2023-06-14T03:39:53;5.43;;;1.47;;
48552;SDS011;34335;51.566;6.994;2023-06-14T03:42:19;2.03;;;1.00;;
48552;SDS011;34335;51.566;6.994;2023-06-14T03:44:44;2.93;;;1.43;;
48552;SDS011;34335;51.566;6.994;2023-06-14T03:47:09;2.60;;;1.63;;
48552;SDS011;34335;51.566;6.994;2023-06-14T03:49:35;3.83;;;1.60;;
48552;SDS011;34335;51.566;6.994;2023-06-14T03:52:00;3.45;;;1.55;;
48552;SDS011;34335;51.566;6.994;2023-06-14T03:54:27;5.10;;;1.80;;
48552;SDS011;34335;51.566;6.994;2023-06-14T03:56:53;3.88;;;1.80;;
48552;SDS011;34335;51.566;6.994;2023-06-14T03:59:18;3.10;;;2.00;;
48552;SDS011;34335;51.566;6.994;2023-06-14T04:01:44;3.53;;;1.48;;
48552;SDS011;34335;51.566;6.994;2023-06-14T04:04:11;4.15;;;1.55;;
48552;SDS011;34335;51.566;6.994;2023-06-14T04:06:37;8.40;;;1.92;;
48552;SDS011;34335;51.566;6.994;2023-06-14T04:09:02;3.63;;;1.70;;
48552;SDS011;34335;51.566;6.994;2023-06-14T04:11:27;2.95;;;1.25;;
48552;SDS011;34335;51.566;6.994;2023-06-14T04:13:53;3.60;;;1.15;;
48552;SDS011;34335;51.566;6.994;2023-06-14T04:16:18;3.70;;;1.65;;
48552;SDS011;34335;51.566;6.994;2023-06-14T04:18:44;3.25;;;1.73;;
48552;SDS011;34335;51.566;6.994;2023-06-14T04:21:11;3.40;;;1.67;;
48552;SDS011;34335;51.566;6.994;2023-06-14T04:23:37;3.67;;;1.75;;
48552;SDS011;34335;51.566;6.994;2023-06-14T04:26:03;7.15;;;2.13;;
48552;SDS011;34335;51.566;6.994;2023-06-14T04:28:28;2.53;;;1.40;;
48552;SDS011;34335;51.566;6.994;2023-06-14T04:30:53;6.15;;;2.30;;
48552;SDS011;34335;51.566;6.994;2023-06-14T04:33:19;3.93;;;1.93;;
48552;SDS011;34335;51.566;6.994;2023-06-14T04:35:44;2.53;;;1.50;;
48552;SDS011;34335;51.566;6.994;2023-06-14T04:38:12;2.78;;;1.35;;
48552;SDS011;34335;51.566;6.994;2023-06-14T04:40:37;4.20;;;1.67;;
48552;SDS011;34335;51.566;6.994;2023-06-14T04:43:07;3.40;;;1.75;;
48552;SDS011;34335;51.566;6.994;2023-06-14T04:45:33;3.08;;;1.60;;
48552;SDS011;34335;51.566;6.994;2023-06-14T04:47:59;2.57;;;1.33;;
48552;SDS011;34335;51.566;6.994;2023-06-14T04:50:24;3.25;;;1.35;;
48552;SDS011;34335;51.566;6.994;2023-06-14T04:52:50;3.70;;;1.60;;
48552;SDS011;34335;51.566;6.994;2023-06-14T04:55:16;3.15;;;1.33;;
48552;SDS011;34335;51.566;6.994;2023-06-14T04:57:42;3.17;;;1.90;;
48552;SDS011;34335;51.566;6.994;2023-06-14T05:00:07;2.83;;;1.52;;
48552;SDS011;34335;51.566;6.994;2023-06-14T05:02:35;8.70;;;2.65;;
48552;SDS011;34335;51.566;6.994;2023-06-14T05:05:02;11.50;;;3.25;;
48552;SDS011;34335;51.566;6.994;2023-06-14T05:07:31;9.25;;;1.90;;
48552;SDS011;34335;51.566;6.994;2023-06-14T05:09:58;6.68;;;1.70;;
48552;SDS011;34335;51.566;6.994;2023-06-14T05:12:24;10.20;;;2.10;;
48552;SDS011;34335;51.566;6.994;2023-06-14T05:14:49;4.85;;;1.65;;
48552;SDS011;34335;51.566;6.994;2023-06-14T05:17:15;2.92;;;1.60;;
48552;SDS011;34335;51.566;6.994;2023-06-14T05:19:41;3.05;;;1.65;;
48552;SDS011;34335;51.566;6.994;2023-06-14T05:22:07;3.58;;;1.67;;
48552;SDS011;34335;51.566;6.994;2023-06-14T05:24:32;3.27;;;1.40;;
48552;SDS011;34335;51.566;6.994;2023-06-14T05:26:57;5.87;;;1.90;;
48552;SDS011;34335;51.566;6.994;2023-06-14T05:29:23;4.60;;;1.67;;
48552;SDS011;34335;51.566;6.994;2023-06-14T05:31:48;2.77;;;1.43;;
48552;SDS011;34335;51.566;6.994;2023-06-14T05:34:13;3.60;;;1.47;;
48552;SDS011;34335;51.566;6.994;2023-06-14T05:36:39;5.25;;;1.55;;
48552;SDS011;34335;51.566;6.994;2023-06-14T05:39:05;2.63;;;1.45;;
48552;SDS011;34335;51.566;6.994;2023-06-14T05:41:31;2.33;;;1.50;;
48552;SDS011;34335;51.566;6.994;2023-06-14T05:43:57;5.22;;;1.92;;
48552;SDS011;34335;51.566;6.994;2023-06-14T05:46:23;3.88;;;1.55;;
48552;SDS011;34335;51.566;6.994;2023-06-14T05:48:52;4.55;;;1.95;;
48552;SDS011;34335;51.566;6.994;2023-06-14T05:51:18;2.90;;;1.88;;
48552;SDS011;34335;51.566;6.994;2023-06-14T05:53:47;3.47;;;1.58;;
48552;SDS011;34335;51.566;6.994;2023-06-14T05:56:17;3.17;;;1.45;;
48552;SDS011;34335;51.566;6.994;2023-06-14T05:58:43;3.70;;;1.30;;
48552;SDS011;34335;51.566;6.994;2023-06-14T06:01:08;3.40;;;1.65;;
48552;SDS011;34335;51.566;6.994;2023-06-14T06:03:34;2.13;;;1.13;;
48552;SDS011;34335;51.566;6.994;2023-06-14T06:05:59;2.10;;;1.40;;
48552;SDS011;34335;51.566;6.994;2023-06-14T06:08:25;5.03;;;2.15;;
48552;SDS011;34335;51.566;6.994;2023-06-14T06:10:51;2.75;;;1.50;;
48552;SDS011;34335;51.566;6.994;2023-06-14T06:13:16;2.90;;;1.50;;
48552;SDS011;34335;51.566;6.994;2023-06-14T06:15:41;2.13;;;1.03;;
48552;SDS011;34335;51.566;6.994;2023-06-14T06:18:07;3.57;;;1.67;;
48552;SDS011;34335;51.566;6.994;2023-06-14T06:20:32;6.00;;;1.55;;
48552;SDS011;34335;51.566;6.994;2023-06-14T06:22:58;2.30;;;1.23;;
48552;SDS011;34335;51.566;6.994;2023-06-14T06:25:23;2.85;;;1.40;;
48552;SDS011;34335;51.566;6.994;2023-06-14T06:27:51;3.80;;;1.30;;
48552;SDS011;34335;51.566;6.994;2023-06-14T06:30:21;4.10;;;1.55;;
48552;SDS011;34335;51.566;6.994;2023-06-14T06:32:46;2.70;;;1.23;;
48552;SDS011;34335;51.566;6.994;2023-06-14T06:35:12;5.70;;;1.70;;
48552;SDS011;34335;51.566;6.994;2023-06-14T06:37:38;5.07;;;1.20;;
48552;SDS011;34335;51.566;6.994;2023-06-14T06:40:03;2.22;;;1.27;;
48552;SDS011;34335;51.566;6.994;2023-06-14T06:42:30;2.80;;;1.23;;
48552;SDS011;34335;51.566;6.994;2023-06-14T06:44:56;2.67;;;1.30;;
48552;SDS011;34335;51.566;6.994;2023-06-14T06:47:21;2.83;;;1.40;;
48552;SDS011;34335;51.566;6.994;2023-06-14T06:49:47;3.27;;;1.57;;
48552;SDS011;34335;51.566;6.994;2023-06-14T06:52:13;4.40;;;0.90;;
48552;SDS011;34335;51.566;6.994;2023-06-14T06:54:38;2.28;;;1.33;;
48552;SDS011;34335;51.566;6.994;2023-06-14T06:57:04;2.67;;;1.58;;
48552;SDS011;34335;51.566;6.994;2023-06-14T06:59:30;3.08;;;1.30;;
48552;SDS011;34335;51.566;6.994;2023-06-14T07:01:56;4.13;;;1.63;;
48552;SDS011;34335;51.566;6.994;2023-06-14T07:04:21;1.83;;;1.00;;
48552;SDS011;34335;51.566;6.994;2023-06-14T07:06:46;5.83;;;1.70;;
48552;SDS011;34335;51.566;6.994;2023-06-14T07:09:12;10.43;;;1.55;;
48552;SDS011;34335;51.566;6.994;2023-06-14T07:11:40;2.97;;;1.60;;
48552;SDS011;34335;51.566;6.994;2023-06-14T07:14:05;3.13;;;1.38;;
48552;SDS011;34335;51.566;6.994;2023-06-14T07:16:31;4.85;;;1.50;;
48552;SDS011;34335;51.566;6.994;2023-06-14T07:18:56;2.72;;;1.10;;
48552;SDS011;34335;51.566;6.994;2023-06-14T07:21:22;3.03;;;1.07;;
48552;SDS011;34335;51.566;6.994;2023-06-14T07:23:47;3.60;;;1.40;;
48552;SDS011;34335;51.566;6.994;2023-06-14T07:26:12;4.80;;;1.55;;
48552;SDS011;34335;51.566;6.994;2023-06-14T07:28:38;6.70;;;1.40;;
48552;SDS011;34335;51.566;6.994;2023-06-14T07:31:03;2.40;;;0.90;;
48552;SDS011;34335;51.566;6.994;2023-06-14T07:33:28;5.47;;;1.40;;
48552;SDS011;34335;51.566;6.994;2023-06-14T07:35:53;5.60;;;1.20;;
48552;SDS011;34335;51.566;6.994;2023-06-14T07:38:19;2.03;;;1.10;;
48552;SDS011;34335;51.566;6.994;2023-06-14T07:40:44;3.33;;;1.37;;
48552;SDS011;34335;51.566;6.994;2023-06-14T07:43:10;2.65;;;1.25;;
48552;SDS011;34335;51.566;6.994;2023-06-14T07:45:35;2.80;;;1.02;;
48552;SDS011;34335;51.566;6.994;2023-06-14T07:48:01;2.05;;;1.23;;
48552;SDS011;34335;51.566;6.994;2023-06-14T07:50:27;2.17;;;1.23;;
48552;SDS011;34335;51.566;6.994;2023-06-14T07:52:53;1.90;;;0.90;;
48552;SDS011;34335;51.566;6.994;2023-06-14T07:55:18;2.83;;;1.03;;
48552;SDS011;34335;51.566;6.994;2023-06-14T07:57:44;4.43;;;1.50;;
48552;SDS011;34335;51.566;6.994;2023-06-14T08:00:09;2.58;;;1.23;;
48552;SDS011;34335;51.566;6.994;2023-06-14T08:02:40;3.67;;;1.15;;
48552;SDS011;34335;51.566;6.994;2023-06-14T08:05:05;1.95;;;1.27;;
48552;SDS011;34335;51.566;6.994;2023-06-14T08:07:31;2.50;;;1.50;;
48552;SDS011;34335;51.566;6.994;2023-06-14T08:09:56;3.00;;;1.30;;
48552;SDS011;34335;51.566;6.994;2023-06-14T08:12:22;3.50;;;1.30;;
48552;SDS011;34335;51.566;6.994;2023-06-14T08:14:47;2.28;;;0.98;;
48552;SDS011;34335;51.566;6.994;2023-06-14T08:17:12;2.33;;;1.17;;
48552;SDS011;34335;51.566;6.994;2023-06-14T08:19:37;5.10;;;1.17;;
48552;SDS011;34335;51.566;6.994;2023-06-14T08:22:03;3.17;;;1.30;;
48552;SDS011;34335;51.566;6.994;2023-06-14T08:24:28;2.55;;;1.30;;
48552;SDS011;34335;51.566;6.994;2023-06-14T08:26:54;3.13;;;1.52;;
48552;SDS011;34335;51.566;6.994;2023-06-14T08:29:19;3.25;;;1.30;;
48552;SDS011;34335;51.566;6.994;2023-06-14T08:31:44;3.90;;;1.27;;
48552;SDS011;34335;51.566;6.994;2023-06-14T08:34:11;2.92;;;1.33;;
48552;SDS011;34335;51.566;6.994;2023-06-14T08:36:37;1.93;;;1.00;;
48552;SDS011;34335;51.566;6.994;2023-06-14T08:39:02;2.80;;;1.13;;
48552;SDS011;34335;51.566;6.994;2023-06-14T08:41:28;2.45;;;1.17;;
48552;SDS011;34335;51.566;6.994;2023-06-14T08:43:54;2.95;;;1.48;;
48552;SDS011;34335;51.566;6.994;2023-06-14T08:46:20;1.92;;;1.15;;
48552;SDS011;34335;51.566;6.994;2023-06-14T08:48:50;6.03;;;1.13;;
48552;SDS011;34335;51.566;6.994;2023-06-14T08:51:18;1.65;;;0.90;;
48552;SDS011;34335;51.566;6.994;2023-06-14T08:53:44;1.67;;;0.93;;
48552;SDS011;34335;51.566;6.994;2023-06-14T08:56:10;2.03;;;1.10;;
48552;SDS011;34335;51.566;6.994;2023-06-14T08:58:47;2.05;;;0.93;;
48552;SDS011;34335;51.566;6.994;2023-06-14T09:01:14;2.15;;;1.00;;
48552;SDS011;34335;51.566;6.994;2023-06-14T09:03:41;1.27;;;0.77;;
48552;SDS011;34335;51.566;6.994;2023-06-14T09:06:08;1.77;;;0.85;;
48552;SDS011;34335;51.566;6.994;2023-06-14T09:08:44;1.70;;;0.90;;
48552;SDS011;34335;51.566;6.994;2023-06-14T09:11:11;1.23;;;0.67;;
48552;SDS011;34335;51.566;6.994;2023-06-14T09:13:38;2.42;;;0.90;;
48552;SDS011;34335;51.566;6.994;2023-06-14T09:16:04;3.25;;;1.30;;
48552;SDS011;34335;51.566;6.994;2023-06-14T09:18:34;0.85;;;0.55;;
48552;SDS011;34335;51.566;6.994;2023-06-14T09:21:03;1.67;;;1.00;;
48552;SDS011;34335;51.566;6.994;2023-06-14T09:23:33;1.35;;;0.60;;
48552;SDS011;34335;51.566;6.994;2023-06-14T09:26:04;2.83;;;0.93;;
48552;SDS011;34335;51.566;6.994;2023-06-14T09:28:31;2.15;;;0.82;;
48552;SDS011;34335;51.566;6.994;2023-06-14T09:30:57;2.03;;;0.90;;
48552;SDS011;34335;51.566;6.994;2023-06-14T09:33:22;1.17;;;0.60;;
48552;SDS011;34335;51.566;6.994;2023-06-14T09:35:51;1.10;;;0.63;;
48552;SDS011;34335;51.566;6.994;2023-06-14T09:38:17;1.98;;;0.95;;
48552;SDS011;34335;51.566;6.994;2023-06-14T09:40:42;0.50;;;0.40;;
48552;SDS011;34335;51.566;6.994;2023-06-14T09:43:07;1.07;;;0.70;;
48552;SDS011;34335;51.566;6.994;2023-06-14T09:45:36;2.38;;;0.57;;
48552;SDS011;34335;51.566;6.994;2023-06-14T09:48:04;1.38;;;0.80;;
48552;SDS011;34335;51.566;6.994;2023-06-14T09:50:32;0.88;;;0.50;;
48552;SDS011;34335;51.566;6.994;2023-06-14T09:53:07;0.90;;;0.50;;
48552;SDS011;34335;51.566;6.994;2023-06-14T09:55:36;1.50;;;0.70;;
48552;SDS011;34335;51.566;6.994;2023-06-14T09:58:04;1.50;;;0.60;;
48552;SDS011;34335;51.566;6.994;2023-06-14T10:00:31;1.15;;;0.57;;
48552;SDS011;34335;51.566;6.994;2023-06-14T10:03:00;3.67;;;0.57;;
48552;SDS011;34335;51.566;6.994;2023-06-14T10:05:28;0.55;;;0.52;;
48552;SDS011;34335;51.566;6.994;2023-06-14T10:08:01;1.17;;;0.70;;
48552;SDS011;34335;51.566;6.994;2023-06-14T10:10:29;0.50;;;0.30;;
48552;SDS011;34335;51.566;6.994;2023-06-14T10:12:55;0.40;;;0.30;;
48552;SDS011;34335;51.566;6.994;2023-06-14T10:23:57;0.75;;;0.50;;
48552;SDS011;34335;51.566;6.994;2023-06-14T10:26:27;2.30;;;0.60;;
48552;SDS011;34335;51.566;6.994;2023-06-14T10:28:59;1.27;;;0.67;;
48552;SDS011;34335;51.566;6.994;2023-06-14T10:31:48;1.83;;;0.60;;
48552;SDS011;34335;51.566;6.994;2023-06-14T10:34:25;1.15;;;0.60;;
48552;SDS011;34335;51.566;6.994;2023-06-14T10:37:02;2.00;;;0.50;;
48552;SDS011;34335;51.566;6.994;2023-06-14T10:39:32;1.15;;;0.70;;
48552;SDS011;34335;51.566;6.994;2023-06-14T10:42:03;2.10;;;0.70;;
48552;SDS011;34335;51.566;6.994;2023-06-14T10:44:30;0.95;;;0.50;;
48552;SDS011;34335;51.566;6.994;2023-06-14T10:47:00;0.93;;;0.60;;
48552;SDS011;34335;51.566;6.994;2023-06-14T10:52:17;1.17;;;0.60;;
48552;SDS011;34335;51.566;6.994;2023-06-14T10:54:55;2.17;;;0.55;;
48552;SDS011;34335;51.566;6.994;2023-06-14T10:57:40;0.87;;;0.50;;
48552;SDS011;34335;51.566;6.994;2023-06-14T11:00:16;5.35;;;0.73;;
48552;SDS011;34335;51.566;6.994;2023-06-14T11:05:34;2.03;;;0.75;;
48552;SDS011;34335;51.566;6.994;2023-06-14T11:11:12;2.05;;;0.80;;
48552;SDS011;34335;51.566;6.994;2023-06-14T11:13:38;1.35;;;0.80;;
48552;SDS011;34335;51.566;6.994;2023-06-14T11:16:10;1.50;;;0.70;;
48552;SDS011;34335;51.566;6.994;2023-06-14T11:18:39;1.13;;;0.60;;
48552;SDS011;34335;51.566;6.994;2023-06-14T11:21:04;1.20;;;0.60;;
48552;SDS011;34335;51.566;6.994;2023-06-14T11:23:29;1.65;;;0.90;;
48552;SDS011;34335;51.566;6.994;2023-06-14T11:25:55;1.43;;;0.80;;
48552;SDS011;34335;51.566;6.994;2023-06-14T11:28:20;3.10;;;0.90;;
48552;SDS011;34335;51.566;6.994;2023-06-14T11:31:05;1.45;;;0.70;;
48552;SDS011;34335;51.566;6.994;2023-06-14T11:33:30;1.50;;;0.60;;
48552;SDS011;34335;51.566;6.994;2023-06-14T11:35:56;4.57;;;0.80;;
48552;SDS011;34335;51.566;6.994;2023-06-14T11:38:21;1.20;;;0.73;;
48552;SDS011;34335;51.566;6.994;2023-06-14T11:40:47;1.70;;;1.00;;
48552;SDS011;34335;51.566;6.994;2023-06-14T11:43:12;1.17;;;0.70;;
48552;SDS011;34335;51.566;6.994;2023-06-14T11:45:39;1.85;;;0.80;;
48552;SDS011;34335;51.566;6.994;2023-06-14T11:48:04;2.80;;;0.70;;
48552;SDS011;34335;51.566;6.994;2023-06-14T11:50:31;1.63;;;0.75;;
48552;SDS011;34335;51.566;6.994;2023-06-14T11:52:58;0.93;;;0.65;;
48552;SDS011;34335;51.566;6.994;2023-06-14T11:55:28;1.02;;;0.65;;
48552;SDS011;34335;51.566;6.994;2023-06-14T11:57:54;1.58;;;0.70;;
48552;SDS011;34335;51.566;6.994;2023-06-14T12:00:22;0.70;;;0.40;;
48552;SDS011;34335;51.566;6.994;2023-06-14T12:02:53;1.23;;;0.60;;
48552;SDS011;34335;51.566;6.994;2023-06-14T12:05:23;1.13;;;0.73;;
48552;SDS011;34335;51.566;6.994;2023-06-14T12:07:49;1.58;;;0.77;;
48552;SDS011;34335;51.566;6.994;2023-06-14T12:10:15;3.33;;;0.75;;
48552;SDS011;34335;51.566;6.994;2023-06-14T12:12:41;2.22;;;1.45;;
48552;SDS011;34335;51.566;6.994;2023-06-14T12:15:07;1.33;;;0.70;;
48552;SDS011;34335;51.566;6.994;2023-06-14T12:17:34;1.10;;;0.60;;
48552;SDS011;34335;51.566;6.994;2023-06-14T12:20:10;1.70;;;1.05;;
48552;SDS011;34335;51.566;6.994;2023-06-14T12:22:54;5.68;;;0.85;;
48552;SDS011;34335;51.566;6.994;2023-06-14T12:25:34;4.10;;;2.08;;
48552;SDS011;34335;51.566;6.994;2023-06-14T12:28:05;1.33;;;0.80;;
48552;SDS011;34335;51.566;6.994;2023-06-14T12:30:31;1.45;;;0.70;;
48552;SDS011;34335;51.566;6.994;2023-06-14T12:32:57;1.95;;;0.80;;
48552;SDS011;34335;51.566;6.994;2023-06-14T12:35:22;2.20;;;0.93;;
48552;SDS011;34335;51.566;6.994;2023-06-14T12:37:47;2.80;;;1.23;;
48552;SDS011;34335;51.566;6.994;2023-06-14T12:40:13;1.90;;;1.07;;
48552;SDS011;34335;51.566;6.994;2023-06-14T12:42:38;3.20;;;0.85;;
48552;SDS011;34335;51.566;6.994;2023-06-14T12:45:04;2.45;;;1.10;;
48552;SDS011;34335;51.566;6.994;2023-06-14T12:47:30;2.10;;;1.15;;
48552;SDS011;34335;51.566;6.994;2023-06-14T12:49:55;1.30;;;0.60;;
48552;SDS011;34335;51.566;6.994;2023-06-14T12:52:21;2.33;;;1.10;;
48552;SDS011;34335;51.566;6.994;2023-06-14T12:54:46;1.93;;;0.90;;
48552;SDS011;34335;51.566;6.994;2023-06-14T12:57:11;1.83;;;1.00;;
48552;SDS011;34335;51.566;6.994;2023-06-14T12:59:36;1.87;;;0.77;;
48552;SDS011;34335;51.566;6.994;2023-06-14T13:04:40;1.73;;;0.93;;
48552;SDS011;34335;51.566;6.994;2023-06-14T13:07:05;1.67;;;1.00;;
48552;SDS011;34335;51.566;6.994;2023-06-14T13:09:31;2.15;;;0.85;;
48552;SDS011;34335;51.566;6.994;2023-06-14T13:11:56;2.17;;;1.00;;
48552;SDS011;34335;51.566;6.994;2023-06-14T13:14:21;1.60;;;0.83;;
48552;SDS011;34335;51.566;6.994;2023-06-14T13:16:47;1.43;;;0.70;;
48552;SDS011;34335;51.566;6.994;2023-06-14T13:19:12;2.90;;;1.40;;
48552;SDS011;34335;51.566;6.994;2023-06-14T13:21:37;2.03;;;0.93;;
48552;SDS011;34335;51.566;6.994;2023-06-14T13:24:02;2.60;;;1.03;;
48552;SDS011;34335;51.566;6.994;2023-06-14T13:26:28;1.92;;;0.93;;
48552;SDS011;34335;51.566;6.994;2023-06-14T13:28:53;1.40;;;0.90;;
48552;SDS011;34335;51.566;6.994;2023-06-14T13:31:19;1.50;;;0.90;;
48552;SDS011;34335;51.566;6.994;2023-06-14T13:33:44;2.03;;;0.90;;
48552;SDS011;34335;51.566;6.994;2023-06-14T13:36:09;1.58;;;0.88;;
48552;SDS011;34335;51.566;6.994;2023-06-14T13:38:35;1.80;;;0.80;;
48552;SDS011;34335;51.566;6.994;2023-06-14T13:41:00;1.50;;;0.80;;
48552;SDS011;34335;51.566;6.994;2023-06-14T13:43:26;1.52;;;0.85;;
48552;SDS011;34335;51.566;6.994;2023-06-14T13:45:51;3.40;;;0.93;;
48552;SDS011;34335;51.566;6.994;2023-06-14T13:48:16;1.53;;;0.93;;
48552;SDS011;34335;51.566;6.994;2023-06-14T13:50:41;5.07;;;1.10;;
48552;SDS011;34335;51.566;6.994;2023-06-14T13:53:07;2.03;;;1.00;;
48552;SDS011;34335;51.566;6.994;2023-06-14T13:55:32;2.50;;;0.97;;
48552;SDS011;34335;51.566;6.994;2023-06-14T13:57:57;1.20;;;0.70;;
48552;SDS011;34335;51.566;6.994;2023-06-14T14:00:23;2.77;;;1.20;;
48552;SDS011;34335;51.566;6.994;2023-06-14T14:02:48;2.63;;;1.20;;
48552;SDS011;34335;51.566;6.994;2023-06-14T14:05:15;2.13;;;1.15;;
48552;SDS011;34335;51.566;6.994;2023-06-14T14:07:41;3.00;;;1.23;;
48552;SDS011;34335;51.566;6.994;2023-06-14T14:10:07;1.88;;;1.13;;
48552;SDS011;34335;51.566;6.994;2023-06-14T14:12:33;1.88;;;1.20;;
48552;SDS011;34335;51.566;6.994;2023-06-14T14:14:58;2.63;;;1.10;;
48552;SDS011;34335;51.566;6.994;2023-06-14T14:17:23;3.33;;;1.30;;
48552;SDS011;34335;51.566;6.994;2023-06-14T14:19:48;2.37;;;1.13;;
48552;SDS011;34335;51.566;6.994;2023-06-14T14:22:14;1.80;;;1.23;;
48552;SDS011;34335;51.566;6.994;2023-06-14T14:24:39;1.83;;;1.23;;
48552;SDS011;34335;51.566;6.994;2023-06-14T14:27:04;1.37;;;0.93;;
48552;SDS011;34335;51.566;6.994;2023-06-14T14:29:30;2.03;;;1.05;;
48552;SDS011;34335;51.566;6.994;2023-06-14T14:31:56;1.60;;;1.00;;
48552;SDS011;34335;51.566;6.994;2023-06-14T14:34:22;3.65;;;1.20;;
48552;SDS011;34335;51.566;6.994;2023-06-14T14:36:47;3.67;;;1.58;;
48552;SDS011;34335;51.566;6.994;2023-06-14T14:39:13;1.97;;;1.10;;
48552;SDS011;34335;51.566;6.994;2023-06-14T14:41:38;2.80;;;1.30;;
48552;SDS011;34335;51.566;6.994;2023-06-14T14:44:05;2.30;;;1.20;;
48552;SDS011;34335;51.566;6.994;2023-06-14T14:46:30;3.17;;;1.45;;
48552;SDS011;34335;51.566;6.994;2023-06-14T14:48:56;2.40;;;1.10;;
48552;SDS011;34335;51.566;6.994;2023-06-14T14:51:21;1.63;;;1.03;;
48552;SDS011;34335;51.566;6.994;2023-06-14T14:53:46;2.10;;;1.23;;
48552;SDS011;34335;51.566;6.994;2023-06-14T14:56:12;2.27;;;1.03;;
48552;SDS011;34335;51.566;6.994;2023-06-14T14:58:37;3.08;;;1.48;;
48552;SDS011;34335;51.566;6.994;2023-06-14T15:01:03;2.05;;;1.25;;
48552;SDS011;34335;51.566;6.994;2023-06-14T15:03:30;2.20;;;1.20;;
48552;SDS011;34335;51.566;6.994;2023-06-14T15:05:55;2.08;;;1.00;;
48552;SDS011;34335;51.566;6.994;2023-06-14T15:08:21;2.37;;;1.50;;